sensor_id;sensor_type;location;lat;lon;timestamp;temperature;humidity
48551;DHT22;34397;51.176;6.738;2023-10-13T00:02:31;17.50;79.50
48551;DHT22;34397;51.176;6.738;2023-10-13T00:05:04;17.50;79.50
48551;DHT22;34397;51.176;6.738;2023-10-13T00:07:38;17.50;79.40
48551;DHT22;34397;51.176;6.738;2023-10-13T00:10:10;17.50;79.40
48551;DHT22;34397;51.176;6.738;2023-10-13T00:12:42;17.50;79.50
48551;DHT22;34397;51.176;6.738;2023-10-13T00:15:20;17.50;79.30
48551;DHT22;34397;51.176;6.738;2023-10-13T00:17:59;17.50;79.40
48551;DHT22;34397;51.176;6.738;2023-10-13T00:20:32;17.50;79.30
48551;DHT22;34397;51.176;6.738;2023-10-13T00:23:06;17.50;79.20
48551;DHT22;34397;51.176;6.738;2023-10-13T00:25:37;17.50;79.20
48551;DHT22;34397;51.176;6.738;2023-10-13T00:28:13;17.50;79.10
48551;DHT22;34397;51.176;6.738;2023-10-13T00:30:54;17.50;79.30
48551;DHT22;34397;51.176;6.738;2023-10-13T00:33:37;17.40;79.20
48551;DHT22;34397;51.176;6.738;2023-10-13T00:36:11;17.50;79.40
48551;DHT22;34397;51.176;6.738;2023-10-13T00:38:49;17.50;79.30
48551;DHT22;34397;51.176;6.738;2023-10-13T00:41:22;17.40;79.40
48551;DHT22;34397;51.176;6.738;2023-10-13T00:44:15;17.40;79.40
48551;DHT22;34397;51.176;6.738;2023-10-13T00:46:47;17.40;79.30
48551;DHT22;34397;51.176;6.738;2023-10-13T00:49:21;17.40;79.30
48551;DHT22;34397;51.176;6.738;2023-10-13T00:51:53;17.40;79.40
48551;DHT22;34397;51.176;6.738;2023-10-13T00:54:26;17.40;79.20
48551;DHT22;34397;51.176;6.738;2023-10-13T00:56:58;17.40;79.30
48551;DHT22;34397;51.176;6.738;2023-10-13T00:59:38;17.40;79.20
48551;DHT22;34397;51.176;6.738;2023-10-13T01:02:12;17.40;79.30
48551;DHT22;34397;51.176;6.738;2023-10-13T01:05:09;17.40;79.40
48551;DHT22;34397;51.176;6.738;2023-10-13T01:07:50;17.40;79.40
48551;DHT22;34397;51.176;6.738;2023-10-13T01:10:23;17.40;79.20
48551;DHT22;34397;51.176;6.738;2023-10-13T01:12:58;17.40;79.30
48551;DHT22;34397;51.176;6.738;2023-10-13T01:15:29;17.40;79.40
48551;DHT22;34397;51.176;6.738;2023-10-13T01:18:07;17.40;79.30
48551;DHT22;34397;51.176;6.738;2023-10-13T01:20:43;17.40;79.60
48551;DHT22;34397;51.176;6.738;2023-10-13T01:23:17;17.40;79.40
48551;DHT22;34397;51.176;6.738;2023-10-13T01:25:48;17.30;79.50
48551;DHT22;34397;51.176;6.738;2023-10-13T01:28:20;17.40;79.40
48551;DHT22;34397;51.176;6.738;2023-10-13T01:30:52;17.30;79.40
48551;DHT22;34397;51.176;6.738;2023-10-13T01:33:24;17.40;79.40
48551;DHT22;34397;51.176;6.738;2023-10-13T01:35:57;17.30;79.50
48551;DHT22;34397;51.176;6.738;2023-10-13T01:38:31;17.40;79.50
48551;DHT22;34397;51.176;6.738;2023-10-13T01:41:05;17.30;79.70
48551;DHT22;34397;51.176;6.738;2023-10-13T01:43:39;17.30;79.60
48551;DHT22;34397;51.176;6.738;2023-10-13T01:46:10;17.40;79.50
48551;DHT22;34397;51.176;6.738;2023-10-13T01:48:45;17.40;79.50
48551;DHT22;34397;51.176;6.738;2023-10-13T01:51:16;17.40;79.60
48551;DHT22;34397;51.176;6.738;2023-10-13T01:53:55;17.40;79.60
48551;DHT22;34397;51.176;6.738;2023-10-13T01:56:26;17.40;79.90
48551;DHT22;34397;51.176;6.738;2023-10-13T01:59:00;17.40;79.60
48551;DHT22;34397;51.176;6.738;2023-10-13T02:01:33;17.30;79.50
48551;DHT22;34397;51.176;6.738;2023-10-13T02:04:05;17.40;79.80
48551;DHT22;34397;51.176;6.738;2023-10-13T02:06:37;17.30;79.60
48551;DHT22;34397;51.176;6.738;2023-10-13T02:09:10;17.30;79.60
48551;DHT22;34397;51.176;6.738;2023-10-13T02:11:44;17.40;79.10
48551;DHT22;34397;51.176;6.738;2023-10-13T02:14:17;17.40;79.30
48551;DHT22;34397;51.176;6.738;2023-10-13T02:16:48;17.40;79.40
48551;DHT22;34397;51.176;6.738;2023-10-13T02:19:21;17.40;79.50
48551;DHT22;34397;51.176;6.738;2023-10-13T02:21:57;17.30;79.60
48551;DHT22;34397;51.176;6.738;2023-10-13T02:24:30;17.30;79.50
48551;DHT22;34397;51.176;6.738;2023-10-13T02:27:02;17.30;80.00
48551;DHT22;34397;51.176;6.738;2023-10-13T02:29:35;17.40;79.70
48551;DHT22;34397;51.176;6.738;2023-10-13T02:32:09;17.40;79.80
48551;DHT22;34397;51.176;6.738;2023-10-13T02:34:49;17.40;80.00
48551;DHT22;34397;51.176;6.738;2023-10-13T02:37:19;17.40;80.10
48551;DHT22;34397;51.176;6.738;2023-10-13T02:39:53;17.30;80.10
48551;DHT22;34397;51.176;6.738;2023-10-13T02:42:28;17.30;80.30
48551;DHT22;34397;51.176;6.738;2023-10-13T02:45:00;17.30;80.00
48551;DHT22;34397;51.176;6.738;2023-10-13T02:47:31;17.30;80.00
48551;DHT22;34397;51.176;6.738;2023-10-13T02:50:03;17.30;80.20
48551;DHT22;34397;51.176;6.738;2023-10-13T02:52:42;17.20;80.30
48551;DHT22;34397;51.176;6.738;2023-10-13T02:55:17;17.20;80.30
48551;DHT22;34397;51.176;6.738;2023-10-13T02:57:55;17.20;80.60
48551;DHT22;34397;51.176;6.738;2023-10-13T03:00:27;17.20;80.60
48551;DHT22;34397;51.176;6.738;2023-10-13T03:03:02;17.20;80.70
48551;DHT22;34397;51.176;6.738;2023-10-13T03:05:36;17.20;80.90
48551;DHT22;34397;51.176;6.738;2023-10-13T03:08:09;17.20;80.90
48551;DHT22;34397;51.176;6.738;2023-10-13T03:10:42;17.20;80.80
48551;DHT22;34397;51.176;6.738;2023-10-13T03:13:18;17.20;81.10
48551;DHT22;34397;51.176;6.738;2023-10-13T03:15:50;17.10;81.00
48551;DHT22;34397;51.176;6.738;2023-10-13T03:18:21;17.10;81.00
48551;DHT22;34397;51.176;6.738;2023-10-13T03:20:52;17.10;81.00
48551;DHT22;34397;51.176;6.738;2023-10-13T03:23:27;17.20;81.10
48551;DHT22;34397;51.176;6.738;2023-10-13T03:26:10;17.10;80.90
48551;DHT22;34397;51.176;6.738;2023-10-13T03:28:42;17.10;81.30
48551;DHT22;34397;51.176;6.738;2023-10-13T03:31:21;17.10;81.00
48551;DHT22;34397;51.176;6.738;2023-10-13T03:33:58;17.10;80.90
48551;DHT22;34397;51.176;6.738;2023-10-13T03:36:30;17.20;81.00
48551;DHT22;34397;51.176;6.738;2023-10-13T03:39:20;17.10;81.50
48551;DHT22;34397;51.176;6.738;2023-10-13T03:41:59;17.20;81.00
48551;DHT22;34397;51.176;6.738;2023-10-13T03:44:35;17.10;81.20
48551;DHT22;34397;51.176;6.738;2023-10-13T03:47:09;17.10;81.10
48551;DHT22;34397;51.176;6.738;2023-10-13T03:49:48;17.10;81.10
48551;DHT22;34397;51.176;6.738;2023-10-13T03:52:21;17.10;81.00
48551;DHT22;34397;51.176;6.738;2023-10-13T03:54:55;17.10;81.20
48551;DHT22;34397;51.176;6.738;2023-10-13T03:57:30;17.10;81.10
48551;DHT22;34397;51.176;6.738;2023-10-13T04:00:05;17.20;81.30
48551;DHT22;34397;51.176;6.738;2023-10-13T04:02:39;17.10;81.20
48551;DHT22;34397;51.176;6.738;2023-10-13T04:05:16;17.10;81.20
48551;DHT22;34397;51.176;6.738;2023-10-13T04:08:05;17.20;81.30
48551;DHT22;34397;51.176;6.738;2023-10-13T04:10:56;17.20;81.30
48551;DHT22;34397;51.176;6.738;2023-10-13T04:13:48;17.10;81.20
48551;DHT22;34397;51.176;6.738;2023-10-13T04:16:48;17.10;81.40
48551;DHT22;34397;51.176;6.738;2023-10-13T04:19:24;17.10;81.30
48551;DHT22;34397;51.176;6.738;2023-10-13T04:21:59;17.10;81.40
48551;DHT22;34397;51.176;6.738;2023-10-13T04:24:48;17.20;81.50
48551;DHT22;34397;51.176;6.738;2023-10-13T04:27:30;17.10;81.60
48551;DHT22;34397;51.176;6.738;2023-10-13T04:30:25;17.20;81.40
48551;DHT22;34397;51.176;6.738;2023-10-13T04:33:09;17.10;81.60
48551;DHT22;34397;51.176;6.738;2023-10-13T04:36:07;17.10;81.30
48551;DHT22;34397;51.176;6.738;2023-10-13T04:38:47;17.10;81.40
48551;DHT22;34397;51.176;6.738;2023-10-13T04:41:32;17.20;81.70
48551;DHT22;34397;51.176;6.738;2023-10-13T04:44:09;17.10;81.60
48551;DHT22;34397;51.176;6.738;2023-10-13T04:47:01;17.10;81.50
48551;DHT22;34397;51.176;6.738;2023-10-13T04:49:47;17.10;81.60
48551;DHT22;34397;51.176;6.738;2023-10-13T04:52:23;17.10;81.60
48551;DHT22;34397;51.176;6.738;2023-10-13T04:55:33;17.10;81.80
48551;DHT22;34397;51.176;6.738;2023-10-13T04:58:30;17.10;82.10
48551;DHT22;34397;51.176;6.738;2023-10-13T05:01:33;17.10;82.00
48551;DHT22;34397;51.176;6.738;2023-10-13T05:04:42;17.10;82.00
48551;DHT22;34397;51.176;6.738;2023-10-13T05:07:42;17.10;82.20
48551;DHT22;34397;51.176;6.738;2023-10-13T05:10:34;17.10;82.10
48551;DHT22;34397;51.176;6.738;2023-10-13T05:13:35;17.10;82.30
48551;DHT22;34397;51.176;6.738;2023-10-13T05:16:24;17.10;82.10
48551;DHT22;34397;51.176;6.738;2023-10-13T05:19:14;17.10;82.10
48551;DHT22;34397;51.176;6.738;2023-10-13T05:22:05;17.10;82.10
48551;DHT22;34397;51.176;6.738;2023-10-13T05:24:54;17.10;82.30
48551;DHT22;34397;51.176;6.738;2023-10-13T05:27:44;17.20;82.20
48551;DHT22;34397;51.176;6.738;2023-10-13T05:30:34;17.10;82.50
48551;DHT22;34397;51.176;6.738;2023-10-13T05:33:23;17.20;83.20
48551;DHT22;34397;51.176;6.738;2023-10-13T05:36:13;17.10;83.00
48551;DHT22;34397;51.176;6.738;2023-10-13T05:39:03;17.10;82.90
48551;DHT22;34397;51.176;6.738;2023-10-13T05:41:53;17.10;83.30
48551;DHT22;34397;51.176;6.738;2023-10-13T05:44:42;17.10;83.20
48551;DHT22;34397;51.176;6.738;2023-10-13T05:47:26;17.10;83.60
48551;DHT22;34397;51.176;6.738;2023-10-13T05:50:16;17.10;84.00
48551;DHT22;34397;51.176;6.738;2023-10-13T05:53:20;17.10;84.40
48551;DHT22;34397;51.176;6.738;2023-10-13T05:56:12;17.10;84.80
48551;DHT22;34397;51.176;6.738;2023-10-13T05:59:02;17.10;85.20
48551;DHT22;34397;51.176;6.738;2023-10-13T06:02:00;17.10;85.40
48551;DHT22;34397;51.176;6.738;2023-10-13T06:04:49;17.10;86.00
48551;DHT22;34397;51.176;6.738;2023-10-13T06:07:39;17.10;86.30
48551;DHT22;34397;51.176;6.738;2023-10-13T06:10:28;17.10;86.40
48551;DHT22;34397;51.176;6.738;2023-10-13T06:13:28;17.10;86.30
48551;DHT22;34397;51.176;6.738;2023-10-13T06:16:23;17.10;86.30
48551;DHT22;34397;51.176;6.738;2023-10-13T06:19:12;17.10;85.60
48551;DHT22;34397;51.176;6.738;2023-10-13T06:22:01;17.10;85.20
48551;DHT22;34397;51.176;6.738;2023-10-13T06:24:51;17.20;84.90
48551;DHT22;34397;51.176;6.738;2023-10-13T06:27:40;17.10;84.30
48551;DHT22;34397;51.176;6.738;2023-10-13T06:30:31;17.10;83.70
48551;DHT22;34397;51.176;6.738;2023-10-13T06:33:04;17.20;84.20
48551;DHT22;34397;51.176;6.738;2023-10-13T06:35:35;17.20;84.00
48551;DHT22;34397;51.176;6.738;2023-10-13T06:38:09;17.20;83.20
48551;DHT22;34397;51.176;6.738;2023-10-13T06:40:51;17.20;83.60
48551;DHT22;34397;51.176;6.738;2023-10-13T06:43:23;17.20;83.80
48551;DHT22;34397;51.176;6.738;2023-10-13T06:45:57;17.20;84.20
48551;DHT22;34397;51.176;6.738;2023-10-13T06:48:30;17.20;84.60
48551;DHT22;34397;51.176;6.738;2023-10-13T06:51:03;17.20;84.40
48551;DHT22;34397;51.176;6.738;2023-10-13T06:53:48;17.20;84.60
48551;DHT22;34397;51.176;6.738;2023-10-13T06:56:26;17.20;84.60
48551;DHT22;34397;51.176;6.738;2023-10-13T06:58:59;17.20;84.70
48551;DHT22;34397;51.176;6.738;2023-10-13T07:01:36;17.30;84.60
48551;DHT22;34397;51.176;6.738;2023-10-13T07:04:10;17.30;85.40
48551;DHT22;34397;51.176;6.738;2023-10-13T07:06:46;17.30;85.50
48551;DHT22;34397;51.176;6.738;2023-10-13T07:09:19;17.30;85.40
48551;DHT22;34397;51.176;6.738;2023-10-13T07:12:06;17.30;85.50
48551;DHT22;34397;51.176;6.738;2023-10-13T07:14:47;17.40;85.90
48551;DHT22;34397;51.176;6.738;2023-10-13T07:17:31;17.40;85.40
48551;DHT22;34397;51.176;6.738;2023-10-13T07:20:10;17.40;85.70
48551;DHT22;34397;51.176;6.738;2023-10-13T07:22:47;17.50;85.80
48551;DHT22;34397;51.176;6.738;2023-10-13T07:25:27;17.50;85.70
48551;DHT22;34397;51.176;6.738;2023-10-13T07:28:03;17.50;85.50
48551;DHT22;34397;51.176;6.738;2023-10-13T07:30:38;17.50;85.50
48551;DHT22;34397;51.176;6.738;2023-10-13T07:33:21;17.60;85.50
48551;DHT22;34397;51.176;6.738;2023-10-13T07:36:00;17.60;85.80
48551;DHT22;34397;51.176;6.738;2023-10-13T07:38:41;17.60;86.10
48551;DHT22;34397;51.176;6.738;2023-10-13T07:41:14;17.60;85.60
48551;DHT22;34397;51.176;6.738;2023-10-13T07:43:47;17.70;85.70
48551;DHT22;34397;51.176;6.738;2023-10-13T07:46:20;17.70;85.60
48551;DHT22;34397;51.176;6.738;2023-10-13T07:49:01;17.70;85.70
48551;DHT22;34397;51.176;6.738;2023-10-13T07:51:41;17.70;85.70
48551;DHT22;34397;51.176;6.738;2023-10-13T07:54:15;17.80;85.50
48551;DHT22;34397;51.176;6.738;2023-10-13T07:56:52;17.70;85.40
48551;DHT22;34397;51.176;6.738;2023-10-13T07:59:25;17.80;85.10
48551;DHT22;34397;51.176;6.738;2023-10-13T08:01:58;17.80;85.00
48551;DHT22;34397;51.176;6.738;2023-10-13T08:04:45;17.80;85.10
48551;DHT22;34397;51.176;6.738;2023-10-13T08:07:19;17.80;85.00
48551;DHT22;34397;51.176;6.738;2023-10-13T08:09:59;17.90;84.80
48551;DHT22;34397;51.176;6.738;2023-10-13T08:12:32;17.90;84.70
48551;DHT22;34397;51.176;6.738;2023-10-13T08:15:07;17.90;85.00
48551;DHT22;34397;51.176;6.738;2023-10-13T08:17:51;17.90;84.80
48551;DHT22;34397;51.176;6.738;2023-10-13T08:20:30;17.90;85.10
48551;DHT22;34397;51.176;6.738;2023-10-13T08:23:08;17.90;85.20
48551;DHT22;34397;51.176;6.738;2023-10-13T08:26:09;18.00;85.00
48551;DHT22;34397;51.176;6.738;2023-10-13T08:29:00;18.00;85.40
48551;DHT22;34397;51.176;6.738;2023-10-13T08:31:52;18.10;85.30
48551;DHT22;34397;51.176;6.738;2023-10-13T08:34:47;18.10;85.50
48551;DHT22;34397;51.176;6.738;2023-10-13T08:37:41;18.20;85.70
48551;DHT22;34397;51.176;6.738;2023-10-13T08:40:30;18.20;85.30
48551;DHT22;34397;51.176;6.738;2023-10-13T08:43:35;18.30;85.00
48551;DHT22;34397;51.176;6.738;2023-10-13T08:46:14;18.40;84.70
48551;DHT22;34397;51.176;6.738;2023-10-13T08:49:00;18.40;84.90
48551;DHT22;34397;51.176;6.738;2023-10-13T08:51:47;18.50;84.70
48551;DHT22;34397;51.176;6.738;2023-10-13T08:54:22;18.60;84.90
48551;DHT22;34397;51.176;6.738;2023-10-13T08:57:05;18.70;85.20
48551;DHT22;34397;51.176;6.738;2023-10-13T09:00:04;18.80;84.50
48551;DHT22;34397;51.176;6.738;2023-10-13T09:02:54;18.90;84.10
48551;DHT22;34397;51.176;6.738;2023-10-13T09:05:46;19.00;84.30
48551;DHT22;34397;51.176;6.738;2023-10-13T09:08:32;19.10;84.20
48551;DHT22;34397;51.176;6.738;2023-10-13T09:11:16;19.20;84.30
48551;DHT22;34397;51.176;6.738;2023-10-13T09:13:57;19.30;84.60
48551;DHT22;34397;51.176;6.738;2023-10-13T09:16:34;19.40;83.90
48551;DHT22;34397;51.176;6.738;2023-10-13T09:19:29;19.50;83.20
48551;DHT22;34397;51.176;6.738;2023-10-13T09:22:07;19.70;82.60
48551;DHT22;34397;51.176;6.738;2023-10-13T09:24:38;19.80;82.30
48551;DHT22;34397;51.176;6.738;2023-10-13T09:27:15;19.90;81.30
48551;DHT22;34397;51.176;6.738;2023-10-13T09:29:55;20.00;80.70
48551;DHT22;34397;51.176;6.738;2023-10-13T09:32:37;20.10;80.30
48551;DHT22;34397;51.176;6.738;2023-10-13T09:35:18;20.20;80.00
48551;DHT22;34397;51.176;6.738;2023-10-13T09:37:54;20.30;79.60
48551;DHT22;34397;51.176;6.738;2023-10-13T09:40:27;20.40;78.90
48551;DHT22;34397;51.176;6.738;2023-10-13T09:43:10;20.40;77.60
48551;DHT22;34397;51.176;6.738;2023-10-13T09:45:47;20.50;75.50
48551;DHT22;34397;51.176;6.738;2023-10-13T09:48:33;20.50;72.20
48551;DHT22;34397;51.176;6.738;2023-10-13T09:51:05;20.60;74.20
48551;DHT22;34397;51.176;6.738;2023-10-13T09:53:41;20.80;72.30
48551;DHT22;34397;51.176;6.738;2023-10-13T09:56:20;20.80;72.40
48551;DHT22;34397;51.176;6.738;2023-10-13T09:59:02;21.00;71.20
48551;DHT22;34397;51.176;6.738;2023-10-13T10:01:44;21.10;70.70
48551;DHT22;34397;51.176;6.738;2023-10-13T10:04:20;21.20;70.20
48551;DHT22;34397;51.176;6.738;2023-10-13T10:06:54;21.40;69.50
48551;DHT22;34397;51.176;6.738;2023-10-13T10:09:27;21.50;68.40
48551;DHT22;34397;51.176;6.738;2023-10-13T10:12:14;21.70;68.60
48551;DHT22;34397;51.176;6.738;2023-10-13T10:15:20;21.80;67.40
48551;DHT22;34397;51.176;6.738;2023-10-13T10:18:01;21.90;68.30
48551;DHT22;34397;51.176;6.738;2023-10-13T10:20:36;22.00;66.10
48551;DHT22;34397;51.176;6.738;2023-10-13T10:23:24;22.10;65.60
48551;DHT22;34397;51.176;6.738;2023-10-13T10:25:57;22.20;64.60
48551;DHT22;34397;51.176;6.738;2023-10-13T10:28:39;22.20;64.00
48551;DHT22;34397;51.176;6.738;2023-10-13T10:31:14;22.30;65.80
48551;DHT22;34397;51.176;6.738;2023-10-13T10:33:47;22.30;62.70
48551;DHT22;34397;51.176;6.738;2023-10-13T10:36:28;22.50;62.90
48551;DHT22;34397;51.176;6.738;2023-10-13T10:39:00;22.70;63.20
48551;DHT22;34397;51.176;6.738;2023-10-13T10:41:36;23.00;62.60
48551;DHT22;34397;51.176;6.738;2023-10-13T10:44:16;23.30;61.90
48551;DHT22;34397;51.176;6.738;2023-10-13T10:46:57;23.60;62.70
48551;DHT22;34397;51.176;6.738;2023-10-13T10:49:40;23.90;60.80
48551;DHT22;34397;51.176;6.738;2023-10-13T10:52:16;24.20;59.50
48551;DHT22;34397;51.176;6.738;2023-10-13T10:54:58;24.50;58.90
48551;DHT22;34397;51.176;6.738;2023-10-13T10:57:31;24.90;58.90
48551;DHT22;34397;51.176;6.738;2023-10-13T11:00:18;25.20;57.70
48551;DHT22;34397;51.176;6.738;2023-10-13T11:02:56;25.50;57.20
48551;DHT22;34397;51.176;6.738;2023-10-13T11:05:28;25.80;55.30
48551;DHT22;34397;51.176;6.738;2023-10-13T11:08:03;25.90;54.00
48551;DHT22;34397;51.176;6.738;2023-10-13T11:10:46;25.90;53.30
48551;DHT22;34397;51.176;6.738;2023-10-13T11:13:18;25.90;53.00
48551;DHT22;34397;51.176;6.738;2023-10-13T11:15:53;25.80;53.40
48551;DHT22;34397;51.176;6.738;2023-10-13T11:18:31;25.80;53.10
48551;DHT22;34397;51.176;6.738;2023-10-13T11:21:15;25.60;52.90
48551;DHT22;34397;51.176;6.738;2023-10-13T11:23:55;25.40;52.70
48551;DHT22;34397;51.176;6.738;2023-10-13T11:26:33;25.20;53.50
48551;DHT22;34397;51.176;6.738;2023-10-13T11:29:05;25.10;53.30
48551;DHT22;34397;51.176;6.738;2023-10-13T11:31:40;24.90;54.20
48551;DHT22;34397;51.176;6.738;2023-10-13T11:34:14;24.70;54.10
48551;DHT22;34397;51.176;6.738;2023-10-13T11:36:47;24.60;54.20
48551;DHT22;34397;51.176;6.738;2023-10-13T11:39:19;24.60;54.10
48551;DHT22;34397;51.176;6.738;2023-10-13T11:42:00;24.60;54.90
48551;DHT22;34397;51.176;6.738;2023-10-13T11:44:32;24.70;54.40
48551;DHT22;34397;51.176;6.738;2023-10-13T11:47:13;24.70;55.00
48551;DHT22;34397;51.176;6.738;2023-10-13T11:50:04;24.70;54.00
48551;DHT22;34397;51.176;6.738;2023-10-13T11:52:36;24.70;53.50
48551;DHT22;34397;51.176;6.738;2023-10-13T11:55:08;24.70;53.20
48551;DHT22;34397;51.176;6.738;2023-10-13T11:57:40;24.60;53.20
48551;DHT22;34397;51.176;6.738;2023-10-13T12:00:15;24.50;53.30
48551;DHT22;34397;51.176;6.738;2023-10-13T12:02:56;24.40;53.50
48551;DHT22;34397;51.176;6.738;2023-10-13T12:05:47;24.40;53.80
48551;DHT22;34397;51.176;6.738;2023-10-13T12:08:50;24.20;53.80
48551;DHT22;34397;51.176;6.738;2023-10-13T12:11:23;24.20;53.60
48551;DHT22;34397;51.176;6.738;2023-10-13T12:14:09;24.10;54.10
48551;DHT22;34397;51.176;6.738;2023-10-13T12:16:50;24.00;54.50
48551;DHT22;34397;51.176;6.738;2023-10-13T12:19:23;23.90;54.40
48551;DHT22;34397;51.176;6.738;2023-10-13T12:22:01;23.80;54.30
48551;DHT22;34397;51.176;6.738;2023-10-13T12:24:35;23.80;54.40
48551;DHT22;34397;51.176;6.738;2023-10-13T12:27:13;23.70;54.50
48551;DHT22;34397;51.176;6.738;2023-10-13T12:29:52;23.70;54.60
48551;DHT22;34397;51.176;6.738;2023-10-13T12:32:26;23.70;54.80
48551;DHT22;34397;51.176;6.738;2023-10-13T12:35:01;23.70;54.90
48551;DHT22;34397;51.176;6.738;2023-10-13T12:38:02;23.70;54.70
48551;DHT22;34397;51.176;6.738;2023-10-13T12:40:48;23.60;54.20
48551;DHT22;34397;51.176;6.738;2023-10-13T12:43:37;23.60;54.00
48551;DHT22;34397;51.176;6.738;2023-10-13T12:46:27;23.50;54.10
48551;DHT22;34397;51.176;6.738;2023-10-13T12:49:19;23.50;54.00
48551;DHT22;34397;51.176;6.738;2023-10-13T12:52:09;23.50;53.60
48551;DHT22;34397;51.176;6.738;2023-10-13T12:54:48;23.50;54.30
48551;DHT22;34397;51.176;6.738;2023-10-13T12:57:29;23.50;53.90
48551;DHT22;34397;51.176;6.738;2023-10-13T13:00:03;23.50;54.30
48551;DHT22;34397;51.176;6.738;2023-10-13T13:02:47;23.50;54.30
48551;DHT22;34397;51.176;6.738;2023-10-13T13:05:22;23.50;54.30
48551;DHT22;34397;51.176;6.738;2023-10-13T13:07:59;23.60;54.60
48551;DHT22;34397;51.176;6.738;2023-10-13T13:10:32;23.60;54.30
48551;DHT22;34397;51.176;6.738;2023-10-13T13:13:06;23.60;53.90
48551;DHT22;34397;51.176;6.738;2023-10-13T13:15:39;23.60;53.60
48551;DHT22;34397;51.176;6.738;2023-10-13T13:18:11;23.70;53.20
48551;DHT22;34397;51.176;6.738;2023-10-13T13:20:43;23.70;53.00
48551;DHT22;34397;51.176;6.738;2023-10-13T13:23:23;23.70;52.80
48551;DHT22;34397;51.176;6.738;2023-10-13T13:25:57;23.70;53.10
48551;DHT22;34397;51.176;6.738;2023-10-13T13:28:29;23.70;52.60
48551;DHT22;34397;51.176;6.738;2023-10-13T13:31:08;23.70;52.10
48551;DHT22;34397;51.176;6.738;2023-10-13T13:33:42;23.70;52.20
48551;DHT22;34397;51.176;6.738;2023-10-13T13:36:14;23.70;51.80
48551;DHT22;34397;51.176;6.738;2023-10-13T13:38:46;23.60;52.00
48551;DHT22;34397;51.176;6.738;2023-10-13T13:41:21;23.60;52.20
48551;DHT22;34397;51.176;6.738;2023-10-13T13:43:53;23.60;52.30
48551;DHT22;34397;51.176;6.738;2023-10-13T13:46:31;23.60;51.90
48551;DHT22;34397;51.176;6.738;2023-10-13T13:49:11;23.50;52.00
48551;DHT22;34397;51.176;6.738;2023-10-13T13:51:49;23.50;52.00
48551;DHT22;34397;51.176;6.738;2023-10-13T13:54:22;23.40;51.70
48551;DHT22;34397;51.176;6.738;2023-10-13T13:56:59;23.40;51.60
48551;DHT22;34397;51.176;6.738;2023-10-13T13:59:31;23.40;51.90
48551;DHT22;34397;51.176;6.738;2023-10-13T14:02:04;23.30;51.80
48551;DHT22;34397;51.176;6.738;2023-10-13T14:04:50;23.30;51.80
48551;DHT22;34397;51.176;6.738;2023-10-13T14:07:23;23.30;51.20
48551;DHT22;34397;51.176;6.738;2023-10-13T14:09:54;23.30;52.00
48551;DHT22;34397;51.176;6.738;2023-10-13T14:12:39;23.30;51.10
48551;DHT22;34397;51.176;6.738;2023-10-13T14:15:12;23.30;51.30
48551;DHT22;34397;51.176;6.738;2023-10-13T14:17:54;23.20;51.30
48551;DHT22;34397;51.176;6.738;2023-10-13T14:20:26;23.20;50.90
48551;DHT22;34397;51.176;6.738;2023-10-13T14:22:57;23.10;50.60
48551;DHT22;34397;51.176;6.738;2023-10-13T14:25:29;23.00;50.70
48551;DHT22;34397;51.176;6.738;2023-10-13T14:28:09;23.00;50.90
48551;DHT22;34397;51.176;6.738;2023-10-13T14:30:41;23.00;50.90
48551;DHT22;34397;51.176;6.738;2023-10-13T14:33:13;22.90;50.70
48551;DHT22;34397;51.176;6.738;2023-10-13T14:35:45;22.90;51.00
48551;DHT22;34397;51.176;6.738;2023-10-13T14:38:17;22.90;51.40
48551;DHT22;34397;51.176;6.738;2023-10-13T14:40:56;22.80;51.60
48551;DHT22;34397;51.176;6.738;2023-10-13T14:43:29;22.80;51.30
48551;DHT22;34397;51.176;6.738;2023-10-13T14:46:01;22.70;51.30
48551;DHT22;34397;51.176;6.738;2023-10-13T14:48:34;22.70;51.20
48551;DHT22;34397;51.176;6.738;2023-10-13T14:51:10;22.60;51.10
48551;DHT22;34397;51.176;6.738;2023-10-13T14:53:43;22.60;51.40
48551;DHT22;34397;51.176;6.738;2023-10-13T14:56:16;22.60;51.30
48551;DHT22;34397;51.176;6.738;2023-10-13T14:58:50;22.60;51.80
48551;DHT22;34397;51.176;6.738;2023-10-13T15:01:23;22.50;51.30
48551;DHT22;34397;51.176;6.738;2023-10-13T15:03:57;22.50;51.20
48551;DHT22;34397;51.176;6.738;2023-10-13T15:06:29;22.50;51.30
48551;DHT22;34397;51.176;6.738;2023-10-13T15:09:01;22.40;51.40
48551;DHT22;34397;51.176;6.738;2023-10-13T15:11:34;22.40;51.30
48551;DHT22;34397;51.176;6.738;2023-10-13T15:14:08;22.40;51.40
48551;DHT22;34397;51.176;6.738;2023-10-13T15:16:41;22.40;51.60
48551;DHT22;34397;51.176;6.738;2023-10-13T15:19:13;22.40;51.70
48551;DHT22;34397;51.176;6.738;2023-10-13T15:21:47;22.30;51.40
48551;DHT22;34397;51.176;6.738;2023-10-13T15:24:20;22.30;51.30
48551;DHT22;34397;51.176;6.738;2023-10-13T15:26:56;22.30;51.40
48551;DHT22;34397;51.176;6.738;2023-10-13T15:29:34;22.30;51.60
48551;DHT22;34397;51.176;6.738;2023-10-13T15:32:07;22.30;51.60
48551;DHT22;34397;51.176;6.738;2023-10-13T15:34:56;22.30;52.10
48551;DHT22;34397;51.176;6.738;2023-10-13T15:37:28;22.30;51.90
48551;DHT22;34397;51.176;6.738;2023-10-13T15:40:01;22.20;51.90
48551;DHT22;34397;51.176;6.738;2023-10-13T15:42:34;22.20;52.00
48551;DHT22;34397;51.176;6.738;2023-10-13T15:45:10;22.20;51.70
48551;DHT22;34397;51.176;6.738;2023-10-13T15:47:48;22.20;51.60
48551;DHT22;34397;51.176;6.738;2023-10-13T15:50:20;22.10;51.40
48551;DHT22;34397;51.176;6.738;2023-10-13T15:52:52;22.10;51.50
48551;DHT22;34397;51.176;6.738;2023-10-13T15:55:23;22.10;51.70
48551;DHT22;34397;51.176;6.738;2023-10-13T15:57:56;22.10;51.80
48551;DHT22;34397;51.176;6.738;2023-10-13T16:00:29;22.00;51.90
48551;DHT22;34397;51.176;6.738;2023-10-13T16:03:02;22.00;51.80
48551;DHT22;34397;51.176;6.738;2023-10-13T16:05:40;22.00;51.70
48551;DHT22;34397;51.176;6.738;2023-10-13T16:08:12;22.00;52.10
48551;DHT22;34397;51.176;6.738;2023-10-13T16:10:44;21.90;52.00
48551;DHT22;34397;51.176;6.738;2023-10-13T16:13:16;21.90;51.80
48551;DHT22;34397;51.176;6.738;2023-10-13T16:15:51;21.90;52.10
48551;DHT22;34397;51.176;6.738;2023-10-13T16:18:23;21.90;52.10
48551;DHT22;34397;51.176;6.738;2023-10-13T16:20:55;21.90;51.80
48551;DHT22;34397;51.176;6.738;2023-10-13T16:23:27;21.80;52.10
48551;DHT22;34397;51.176;6.738;2023-10-13T16:25:59;21.80;52.30
48551;DHT22;34397;51.176;6.738;2023-10-13T16:28:34;21.80;52.50
48551;DHT22;34397;51.176;6.738;2023-10-13T16:31:08;21.80;52.50
48551;DHT22;34397;51.176;6.738;2023-10-13T16:33:40;21.80;52.50
48551;DHT22;34397;51.176;6.738;2023-10-13T16:36:12;21.80;52.70
48551;DHT22;34397;51.176;6.738;2023-10-13T16:38:44;21.80;52.80
48551;DHT22;34397;51.176;6.738;2023-10-13T16:41:16;21.80;52.90
48551;DHT22;34397;51.176;6.738;2023-10-13T16:43:49;21.70;53.00